sensor_id;sensor_type;location;lat;lon;timestamp;pressure;altitude;pressure_sealevel;temperature;humidity
3968;BME280;9221;42.646;23.380;2023-09-12T00:01:47;94683.47;;;17.07;63.03
3968;BME280;9221;42.646;23.380;2023-09-12T00:04:13;94686.09;;;16.85;63.98
3968;BME280;9221;42.646;23.380;2023-09-12T00:06:38;94666.81;;;16.83;63.94
3968;BME280;9221;42.646;23.380;2023-09-12T00:09:03;94684.44;;;16.84;64.77
3968;BME280;9221;42.646;23.380;2023-09-12T00:11:31;94688.84;;;16.77;65.48
3968;BME280;9221;42.646;23.380;2023-09-12T00:13:58;94693.38;;;16.62;66.29
3968;BME280;9221;42.646;23.380;2023-09-12T00:16:24;94684.56;;;16.61;66.83
3968;BME280;9221;42.646;23.380;2023-09-12T00:18:50;94689.41;;;16.57;67.67
3968;BME280;9221;42.646;23.380;2023-09-12T00:21:15;94682.19;;;16.36;68.87
3968;BME280;9221;42.646;23.380;2023-09-12T00:23:40;94682.53;;;16.33;69.90
3968;BME280;9221;42.646;23.380;2023-09-12T00:26:06;94696.13;;;16.38;70.33
3968;BME280;9221;42.646;23.380;2023-09-12T00:28:31;94695.69;;;16.35;70.99
3968;BME280;9221;42.646;23.380;2023-09-12T00:30:58;94698.06;;;16.30;71.40
3968;BME280;9221;42.646;23.380;2023-09-12T00:33:24;94662.56;;;16.07;71.88
3968;BME280;9221;42.646;23.380;2023-09-12T00:35:49;94700.91;;;16.28;72.08
3968;BME280;9221;42.646;23.380;2023-09-12T00:38:14;94696.78;;;16.26;72.55
3968;BME280;9221;42.646;23.380;2023-09-12T00:40:40;94685.56;;;16.15;72.57
3968;BME280;9221;42.646;23.380;2023-09-12T00:43:05;94695.56;;;16.13;72.93
3968;BME280;9221;42.646;23.380;2023-09-12T00:45:31;94692.63;;;16.08;73.21
3968;BME280;9221;42.646;23.380;2023-09-12T00:47:58;94707.59;;;16.09;73.22
3968;BME280;9221;42.646;23.380;2023-09-12T00:50:25;94703.91;;;16.10;72.55
3968;BME280;9221;42.646;23.380;2023-09-12T00:52:50;94701.91;;;16.12;72.02
3968;BME280;9221;42.646;23.380;2023-09-12T00:55:18;94706.28;;;16.05;72.17
3968;BME280;9221;42.646;23.380;2023-09-12T00:57:43;94705.56;;;16.11;71.75
3968;BME280;9221;42.646;23.380;2023-09-12T01:00:11;94744.94;;;16.16;70.66
3968;BME280;9221;42.646;23.380;2023-09-12T01:02:45;94647.03;;;15.73;70.38
3968;BME280;9221;42.646;23.380;2023-09-12T01:05:14;94715.16;;;15.97;70.74
3968;BME280;9221;42.646;23.380;2023-09-12T01:07:41;94669.31;;;15.80;70.02
3968;BME280;9221;42.646;23.380;2023-09-12T01:10:08;94708.88;;;16.13;69.89
3968;BME280;9221;42.646;23.380;2023-09-12T01:12:33;94707.94;;;16.06;69.91
3968;BME280;9221;42.646;23.380;2023-09-12T01:14:59;94707.41;;;16.11;69.21
3968;BME280;9221;42.646;23.380;2023-09-12T01:17:25;94711.97;;;16.02;69.12
3968;BME280;9221;42.646;23.380;2023-09-12T01:19:51;94672.06;;;15.87;69.50
3968;BME280;9221;42.646;23.380;2023-09-12T01:28:17;94717.19;;;15.95;69.86
3968;BME280;9221;42.646;23.380;2023-09-12T01:30:45;94655.53;;;15.53;69.59
3968;BME280;9221;42.646;23.380;2023-09-12T01:33:13;94715.66;;;16.01;69.24
3968;BME280;9221;42.646;23.380;2023-09-12T01:35:39;94721.69;;;15.95;68.96
3968;BME280;9221;42.646;23.380;2023-09-12T01:38:04;94719.84;;;16.10;68.33
3968;BME280;9221;42.646;23.380;2023-09-12T01:40:47;94755.38;;;16.02;68.36
3968;BME280;9221;42.646;23.380;2023-09-12T01:43:15;94718.94;;;16.03;68.57
3968;BME280;9221;42.646;23.380;2023-09-12T01:45:42;94713.31;;;15.98;68.94
3968;BME280;9221;42.646;23.380;2023-09-12T01:48:08;94707.34;;;15.81;69.47
3968;BME280;9221;42.646;23.380;2023-09-12T01:50:34;94731.31;;;15.96;68.35
3968;BME280;9221;42.646;23.380;2023-09-12T01:53:01;94721.88;;;16.08;67.75
3968;BME280;9221;42.646;23.380;2023-09-12T01:55:27;94684.81;;;15.92;67.50
3968;BME280;9221;42.646;23.380;2023-09-12T01:57:53;94724.09;;;16.19;67.46
3968;BME280;9221;42.646;23.380;2023-09-12T02:00:18;94739.91;;;16.36;67.42
3968;BME280;9221;42.646;23.380;2023-09-12T02:02:45;94729.16;;;16.44;67.20
3968;BME280;9221;42.646;23.380;2023-09-12T02:05:14;94704.28;;;16.37;66.51
3968;BME280;9221;42.646;23.380;2023-09-12T02:07:43;94717.31;;;16.32;66.82
3968;BME280;9221;42.646;23.380;2023-09-12T02:10:08;94726.59;;;16.36;67.54
3968;BME280;9221;42.646;23.380;2023-09-12T02:12:35;94728.13;;;16.15;67.76
3968;BME280;9221;42.646;23.380;2023-09-12T02:15:00;94730.50;;;16.10;68.36
3968;BME280;9221;42.646;23.380;2023-09-12T02:17:26;94730.56;;;16.02;69.10
3968;BME280;9221;42.646;23.380;2023-09-12T02:19:51;94729.22;;;16.06;68.71
3968;BME280;9221;42.646;23.380;2023-09-12T02:22:16;94735.91;;;16.02;69.18
3968;BME280;9221;42.646;23.380;2023-09-12T02:24:42;94731.50;;;15.94;69.70
3968;BME280;9221;42.646;23.380;2023-09-12T02:27:07;94735.97;;;15.94;69.78
3968;BME280;9221;42.646;23.380;2023-09-12T02:29:33;94740.66;;;15.92;69.87
3968;BME280;9221;42.646;23.380;2023-09-12T02:31:59;94727.47;;;15.98;69.77
3968;BME280;9221;42.646;23.380;2023-09-12T02:34:24;94735.81;;;16.10;69.46
3968;BME280;9221;42.646;23.380;2023-09-12T02:36:50;94744.13;;;15.92;70.03
3968;BME280;9221;42.646;23.380;2023-09-12T02:39:15;94722.66;;;15.55;70.93
3968;BME280;9221;42.646;23.380;2023-09-12T02:41:41;94734.59;;;15.60;71.66
3968;BME280;9221;42.646;23.380;2023-09-12T02:44:06;94710.34;;;15.31;71.98
3968;BME280;9221;42.646;23.380;2023-09-12T02:46:32;94730.13;;;15.29;73.05
3968;BME280;9221;42.646;23.380;2023-09-12T02:48:58;94707.16;;;15.36;72.16
3968;BME280;9221;42.646;23.380;2023-09-12T02:51:25;94722.53;;;15.49;71.88
3968;BME280;9221;42.646;23.380;2023-09-12T02:53:50;94735.22;;;15.62;71.59
3968;BME280;9221;42.646;23.380;2023-09-12T02:56:16;94740.47;;;15.70;71.59
3968;BME280;9221;42.646;23.380;2023-09-12T02:58:41;94733.63;;;15.52;71.51
3968;BME280;9221;42.646;23.380;2023-09-12T03:01:07;94733.28;;;15.32;72.23
3968;BME280;9221;42.646;23.380;2023-09-12T03:03:32;94740.66;;;15.45;71.83
3968;BME280;9221;42.646;23.380;2023-09-12T03:05:59;94725.34;;;15.47;71.68
3968;BME280;9221;42.646;23.380;2023-09-12T03:08:24;94735.41;;;15.60;71.67
3968;BME280;9221;42.646;23.380;2023-09-12T03:10:56;94735.44;;;15.75;71.13
3968;BME280;9221;42.646;23.380;2023-09-12T03:13:24;94765.66;;;15.82;70.39
3968;BME280;9221;42.646;23.380;2023-09-12T03:15:50;94733.09;;;15.57;70.04
3968;BME280;9221;42.646;23.380;2023-09-12T03:18:16;94730.31;;;15.50;71.14
3968;BME280;9221;42.646;23.380;2023-09-12T03:20:41;94740.22;;;15.56;70.03
3968;BME280;9221;42.646;23.380;2023-09-12T03:23:07;94741.41;;;15.54;68.83
3968;BME280;9221;42.646;23.380;2023-09-12T03:25:39;94739.91;;;15.60;68.20
3968;BME280;9221;42.646;23.380;2023-09-12T03:28:05;94741.66;;;15.67;68.28
3968;BME280;9221;42.646;23.380;2023-09-12T03:30:33;94746.72;;;15.77;67.66
3968;BME280;9221;42.646;23.380;2023-09-12T03:32:58;94733.03;;;15.65;67.43
3968;BME280;9221;42.646;23.380;2023-09-12T03:35:23;94745.91;;;15.77;68.78
3968;BME280;9221;42.646;23.380;2023-09-12T03:37:49;94734.84;;;15.65;68.37
3968;BME280;9221;42.646;23.380;2023-09-12T03:40:14;94743.13;;;15.70;67.88
3968;BME280;9221;42.646;23.380;2023-09-12T03:42:40;94750.03;;;15.79;67.03
3968;BME280;9221;42.646;23.380;2023-09-12T03:45:06;94752.47;;;15.66;66.32
3968;BME280;9221;42.646;23.380;2023-09-12T03:47:31;94740.69;;;15.37;67.63
3968;BME280;9221;42.646;23.380;2023-09-12T03:49:57;94749.78;;;15.19;69.03
3968;BME280;9221;42.646;23.380;2023-09-12T03:52:22;94745.16;;;15.13;69.32
3968;BME280;9221;42.646;23.380;2023-09-12T03:54:47;94758.34;;;15.30;68.63
3968;BME280;9221;42.646;23.380;2023-09-12T03:57:13;94756.63;;;15.14;69.53
3968;BME280;9221;42.646;23.380;2023-09-12T03:59:38;94752.56;;;14.95;70.21
3968;BME280;9221;42.646;23.380;2023-09-12T04:02:03;94749.31;;;14.76;70.97
3968;BME280;9221;42.646;23.380;2023-09-12T04:04:29;94749.34;;;14.68;71.43
3968;BME280;9221;42.646;23.380;2023-09-12T04:06:54;94745.69;;;14.61;72.05
3968;BME280;9221;42.646;23.380;2023-09-12T04:09:20;94762.94;;;14.73;71.88
3968;BME280;9221;42.646;23.380;2023-09-12T04:11:46;94744.56;;;14.63;71.60
3968;BME280;9221;42.646;23.380;2023-09-12T04:14:11;94751.97;;;14.68;71.88
3968;BME280;9221;42.646;23.380;2023-09-12T04:16:36;94767.78;;;14.53;72.36
3968;BME280;9221;42.646;23.380;2023-09-12T04:19:02;94752.03;;;14.43;72.80
3968;BME280;9221;42.646;23.380;2023-09-12T04:21:28;94758.06;;;14.29;73.46
3968;BME280;9221;42.646;23.380;2023-09-12T04:37:06;94762.66;;;14.35;74.18
3968;BME280;9221;42.646;23.380;2023-09-12T04:39:32;94765.69;;;14.24;74.49
3968;BME280;9221;42.646;23.380;2023-09-12T04:41:57;94751.09;;;14.28;74.68
3968;BME280;9221;42.646;23.380;2023-09-12T04:44:23;94764.97;;;14.46;73.85
3968;BME280;9221;42.646;23.380;2023-09-12T04:46:48;94767.94;;;14.51;73.76
3968;BME280;9221;42.646;23.380;2023-09-12T04:49:14;94771.25;;;14.62;73.10
3968;BME280;9221;42.646;23.380;2023-09-12T04:51:39;94770.56;;;14.68;72.02
3968;BME280;9221;42.646;23.380;2023-09-12T04:54:05;94766.88;;;14.77;71.30
3968;BME280;9221;42.646;23.380;2023-09-12T04:56:30;94762.91;;;14.81;71.57
3968;BME280;9221;42.646;23.380;2023-09-12T04:58:55;94725.13;;;14.71;71.13
3968;BME280;9221;42.646;23.380;2023-09-12T05:01:21;94764.53;;;14.91;71.36
3968;BME280;9221;42.646;23.380;2023-09-12T05:03:46;94764.22;;;14.85;71.47
3968;BME280;9221;42.646;23.380;2023-09-12T05:06:13;94750.97;;;14.77;71.48
3968;BME280;9221;42.646;23.380;2023-09-12T05:08:38;94770.38;;;14.86;71.34
3968;BME280;9221;42.646;23.380;2023-09-12T05:11:04;94771.66;;;14.90;71.46
3968;BME280;9221;42.646;23.380;2023-09-12T05:13:29;94767.81;;;15.01;71.16
3968;BME280;9221;42.646;23.380;2023-09-12T05:15:55;94777.66;;;15.23;70.65
3968;BME280;9221;42.646;23.380;2023-09-12T05:18:22;94764.72;;;15.20;70.64
3968;BME280;9221;42.646;23.380;2023-09-12T05:20:47;94778.94;;;15.28;70.46
3968;BME280;9221;42.646;23.380;2023-09-12T05:23:12;94787.63;;;15.21;70.50
3968;BME280;9221;42.646;23.380;2023-09-12T05:25:38;94767.38;;;15.20;70.83
3968;BME280;9221;42.646;23.380;2023-09-12T05:28:03;94780.88;;;15.42;70.30
3968;BME280;9221;42.646;23.380;2023-09-12T05:30:30;94771.44;;;15.63;69.38
3968;BME280;9221;42.646;23.380;2023-09-12T05:32:55;94785.22;;;15.89;68.36
3968;BME280;9221;42.646;23.380;2023-09-12T05:35:20;94777.22;;;15.89;68.77
3968;BME280;9221;42.646;23.380;2023-09-12T05:37:46;94770.47;;;16.02;68.38
3968;BME280;9221;42.646;23.380;2023-09-12T05:40:11;94785.81;;;16.00;68.98
3968;BME280;9221;42.646;23.380;2023-09-12T05:42:36;94785.50;;;15.95;68.82
3968;BME280;9221;42.646;23.380;2023-09-12T05:45:02;94782.84;;;15.95;68.96
3968;BME280;9221;42.646;23.380;2023-09-12T05:47:27;94789.28;;;16.00;69.18
3968;BME280;9221;42.646;23.380;2023-09-12T05:49:53;94786.56;;;16.08;68.80
3968;BME280;9221;42.646;23.380;2023-09-12T05:52:19;94791.88;;;16.08;68.63
3968;BME280;9221;42.646;23.380;2023-09-12T05:54:44;94793.47;;;16.18;68.41
3968;BME280;9221;42.646;23.380;2023-09-12T05:57:10;94801.22;;;16.42;68.44
3968;BME280;9221;42.646;23.380;2023-09-12T05:59:37;94783.28;;;16.74;67.31
3968;BME280;9221;42.646;23.380;2023-09-12T06:02:04;94781.44;;;17.05;66.59
3968;BME280;9221;42.646;23.380;2023-09-12T06:04:30;94790.78;;;17.31;64.89
3968;BME280;9221;42.646;23.380;2023-09-12T06:06:55;94783.22;;;17.34;64.65
3968;BME280;9221;42.646;23.380;2023-09-12T06:09:21;94795.56;;;17.20;64.75
3968;BME280;9221;42.646;23.380;2023-09-12T06:11:46;94785.19;;;17.25;64.29
3968;BME280;9221;42.646;23.380;2023-09-12T06:14:11;94784.59;;;17.30;64.21
3968;BME280;9221;42.646;23.380;2023-09-12T06:16:37;94788.16;;;17.52;64.03
3968;BME280;9221;42.646;23.380;2023-09-12T06:19:02;94780.94;;;17.68;63.14
3968;BME280;9221;42.646;23.380;2023-09-12T06:21:27;94793.44;;;17.89;62.42
3968;BME280;9221;42.646;23.380;2023-09-12T06:24:12;94794.69;;;18.08;61.68
3968;BME280;9221;42.646;23.380;2023-09-12T06:26:38;94782.59;;;18.12;60.83
3968;BME280;9221;42.646;23.380;2023-09-12T06:29:04;94792.84;;;18.08;60.66
3968;BME280;9221;42.646;23.380;2023-09-12T06:31:30;94771.41;;;17.80;60.01
3968;BME280;9221;42.646;23.380;2023-09-12T06:33:55;94797.22;;;17.95;60.09
3968;BME280;9221;42.646;23.380;2023-09-12T06:36:22;94795.91;;;18.34;60.46
3968;BME280;9221;42.646;23.380;2023-09-12T06:38:49;94798.16;;;18.58;59.23
3968;BME280;9221;42.646;23.380;2023-09-12T06:41:15;94810.19;;;18.76;58.22
3968;BME280;9221;42.646;23.380;2023-09-12T06:43:40;94800.28;;;18.70;57.01
3968;BME280;9221;42.646;23.380;2023-09-12T06:46:06;94797.97;;;18.60;56.75
3968;BME280;9221;42.646;23.380;2023-09-12T06:48:31;94787.66;;;18.85;57.13
3968;BME280;9221;42.646;23.380;2023-09-12T06:50:56;94813.81;;;19.25;57.05
3968;BME280;9221;42.646;23.380;2023-09-12T06:53:22;94803.56;;;19.42;56.79
3968;BME280;9221;42.646;23.380;2023-09-12T06:55:47;94857.38;;;19.60;56.39
3968;BME280;9221;42.646;23.380;2023-09-12T06:58:13;94812.31;;;19.71;54.92
3968;BME280;9221;42.646;23.380;2023-09-12T07:00:38;94796.25;;;19.71;54.36
3968;BME280;9221;42.646;23.380;2023-09-12T07:03:04;94808.47;;;19.87;53.85
3968;BME280;9221;42.646;23.380;2023-09-12T07:05:29;94795.94;;;19.94;53.25
3968;BME280;9221;42.646;23.380;2023-09-12T07:07:54;94802.31;;;20.00;53.15
3968;BME280;9221;42.646;23.380;2023-09-12T07:10:20;94811.63;;;20.31;52.53
3968;BME280;9221;42.646;23.380;2023-09-12T07:12:45;94819.06;;;20.55;52.15
3968;BME280;9221;42.646;23.380;2023-09-12T07:15:11;94823.59;;;20.75;50.94
3968;BME280;9221;42.646;23.380;2023-09-12T07:17:36;94803.78;;;21.03;50.56
3968;BME280;9221;42.646;23.380;2023-09-12T07:20:01;94811.91;;;21.35;49.58
3968;BME280;9221;42.646;23.380;2023-09-12T07:22:27;94806.50;;;21.55;47.60
3968;BME280;9221;42.646;23.380;2023-09-12T07:24:53;94803.91;;;21.80;47.56
3968;BME280;9221;42.646;23.380;2023-09-12T07:27:19;94810.06;;;22.19;46.77
3968;BME280;9221;42.646;23.380;2023-09-12T07:29:44;94814.63;;;22.51;45.06
3968;BME280;9221;42.646;23.380;2023-09-12T07:32:10;94802.34;;;22.61;43.60
3968;BME280;9221;42.646;23.380;2023-09-12T07:34:35;94812.94;;;23.00;43.94
3968;BME280;9221;42.646;23.380;2023-09-12T07:37:03;94800.75;;;23.23;43.42
3968;BME280;9221;42.646;23.380;2023-09-12T07:39:28;94803.63;;;23.58;41.79
3968;BME280;9221;42.646;23.380;2023-09-12T07:41:53;94805.16;;;23.85;41.11
3968;BME280;9221;42.646;23.380;2023-09-12T07:44:19;94810.75;;;24.02;41.24
3968;BME280;9221;42.646;23.380;2023-09-12T07:46:46;94811.69;;;23.95;41.41
3968;BME280;9221;42.646;23.380;2023-09-12T07:49:11;94812.69;;;24.25;41.97
3968;BME280;9221;42.646;23.380;2023-09-12T07:51:37;94802.22;;;24.47;41.36
3968;BME280;9221;42.646;23.380;2023-09-12T07:54:02;94806.97;;;24.87;40.59
3968;BME280;9221;42.646;23.380;2023-09-12T07:56:28;94798.03;;;25.22;40.14
3968;BME280;9221;42.646;23.380;2023-09-12T07:58:53;94798.25;;;25.56;38.89
3968;BME280;9221;42.646;23.380;2023-09-12T08:01:20;94799.97;;;25.91;38.68
3968;BME280;9221;42.646;23.380;2023-09-12T08:03:46;94798.69;;;26.23;38.39
3968;BME280;9221;42.646;23.380;2023-09-12T08:06:12;94805.69;;;26.35;37.63
3968;BME280;9221;42.646;23.380;2023-09-12T08:08:38;94812.59;;;26.60;37.29
3968;BME280;9221;42.646;23.380;2023-09-12T08:11:03;94789.41;;;26.64;36.88
3968;BME280;9221;42.646;23.380;2023-09-12T08:13:29;94807.94;;;27.07;36.53
3968;BME280;9221;42.646;23.380;2023-09-12T08:15:56;94805.66;;;27.38;36.06
3968;BME280;9221;42.646;23.380;2023-09-12T08:18:26;94802.50;;;27.68;35.02
3968;BME280;9221;42.646;23.380;2023-09-12T08:20:52;94807.88;;;28.07;34.05
3968;BME280;9221;42.646;23.380;2023-09-12T08:23:18;94800.16;;;28.21;33.76
3968;BME280;9221;42.646;23.380;2023-09-12T08:25:43;94808.94;;;28.33;33.63
3968;BME280;9221;42.646;23.380;2023-09-12T08:28:08;94813.16;;;28.46;32.15
3968;BME280;9221;42.646;23.380;2023-09-12T08:30:34;94806.09;;;28.18;32.73
3968;BME280;9221;42.646;23.380;2023-09-12T08:32:59;94806.19;;;28.28;33.04
3968;BME280;9221;42.646;23.380;2023-09-12T08:35:27;94788.44;;;28.75;32.62
3968;BME280;9221;42.646;23.380;2023-09-12T08:37:52;94798.78;;;29.16;31.83
3968;BME280;9221;42.646;23.380;2023-09-12T08:40:18;94765.25;;;29.37;30.49
3968;BME280;9221;42.646;23.380;2023-09-12T08:42:45;94789.81;;;29.68;30.26
3968;BME280;9221;42.646;23.380;2023-09-12T08:45:16;94784.78;;;30.03;30.40
3968;BME280;9221;42.646;23.380;2023-09-12T08:47:49;94786.75;;;30.28;29.35
3968;BME280;9221;42.646;23.380;2023-09-12T08:50:15;94789.81;;;30.47;29.37
3968;BME280;9221;42.646;23.380;2023-09-12T08:52:45;94786.19;;;30.11;30.00
3968;BME280;9221;42.646;23.380;2023-09-12T08:55:12;94790.63;;;30.48;28.98
3968;BME280;9221;42.646;23.380;2023-09-12T08:57:41;94801.50;;;30.53;28.53
3968;BME280;9221;42.646;23.380;2023-09-12T09:00:08;94788.72;;;31.05;28.40
3968;BME280;9221;42.646;23.380;2023-09-12T09:02:35;94769.09;;;31.18;27.89
3968;BME280;9221;42.646;23.380;2023-09-12T09:05:02;94715.66;;;31.28;27.53
3968;BME280;9221;42.646;23.380;2023-09-12T09:07:31;94793.56;;;32.15;27.43
3968;BME280;9221;42.646;23.380;2023-09-12T09:09:57;94789.28;;;32.43;26.10
3968;BME280;9221;42.646;23.380;2023-09-12T09:12:23;94798.09;;;32.69;26.57
3968;BME280;9221;42.646;23.380;2023-09-12T09:14:48;94795.66;;;32.68;25.72
3968;BME280;9221;42.646;23.380;2023-09-12T09:17:14;94787.56;;;32.58;26.20
3968;BME280;9221;42.646;23.380;2023-09-12T09:19:42;94789.88;;;32.80;25.77
3968;BME280;9221;42.646;23.380;2023-09-12T09:22:08;94784.81;;;33.21;25.73
3968;BME280;9221;42.646;23.380;2023-09-12T09:24:33;94784.94;;;33.65;25.20
3968;BME280;9221;42.646;23.380;2023-09-12T09:26:58;94784.47;;;33.33;24.57
3968;BME280;9221;42.646;23.380;2023-09-12T09:29:26;94786.09;;;33.34;24.79
3968;BME280;9221;42.646;23.380;2023-09-12T09:31:56;94772.25;;;32.96;24.54
3968;BME280;9221;42.646;23.380;2023-09-12T09:34:22;94764.50;;;33.03;24.82
3968;BME280;9221;42.646;23.380;2023-09-12T09:36:51;94759.91;;;33.28;24.68
3968;BME280;9221;42.646;23.380;2023-09-12T09:39:25;94772.78;;;33.52;23.92
3968;BME280;9221;42.646;23.380;2023-09-12T09:41:55;94769.22;;;33.76;23.78
3968;BME280;9221;42.646;23.380;2023-09-12T09:44:22;94761.44;;;34.26;23.81
3968;BME280;9221;42.646;23.380;2023-09-12T09:46:51;94779.91;;;34.39;23.00
3968;BME280;9221;42.646;23.380;2023-09-12T09:49:19;94764.63;;;34.14;23.30
3968;BME280;9221;42.646;23.380;2023-09-12T09:51:45;94763.66;;;34.62;22.92
3968;BME280;9221;42.646;23.380;2023-09-12T09:54:14;94757.47;;;34.70;22.54
3968;BME280;9221;42.646;23.380;2023-09-12T09:56:49;94750.56;;;34.59;22.84
3968;BME280;9221;42.646;23.380;2023-09-12T09:59:25;94783.28;;;34.69;22.58
3968;BME280;9221;42.646;23.380;2023-09-12T10:01:56;94669.84;;;34.37;22.64
3968;BME280;9221;42.646;23.380;2023-09-12T10:04:23;94713.69;;;34.84;22.29
3968;BME280;9221;42.646;23.380;2023-09-12T10:06:49;94746.31;;;34.34;22.05
3968;BME280;9221;42.646;23.380;2023-09-12T10:09:16;94739.09;;;32.39;24.36
3968;BME280;9221;42.646;23.380;2023-09-12T10:11:46;94737.31;;;32.19;24.42
3968;BME280;9221;42.646;23.380;2023-09-12T10:14:15;94733.88;;;32.77;24.81
3968;BME280;9221;42.646;23.380;2023-09-12T10:16:50;94741.06;;;33.51;23.93
3968;BME280;9221;42.646;23.380;2023-09-12T10:19:18;94735.59;;;33.27;23.71
3968;BME280;9221;42.646;23.380;2023-09-12T10:24:49;94648.16;;;34.41;22.19
3968;BME280;9221;42.646;23.380;2023-09-12T10:27:18;94728.19;;;35.18;21.86
3968;BME280;9221;42.646;23.380;2023-09-12T10:29:43;94729.91;;;35.14;22.71
3968;BME280;9221;42.646;23.380;2023-09-12T10:32:14;94718.94;;;35.14;22.29
3968;BME280;9221;42.646;23.380;2023-09-12T10:34:40;94730.09;;;35.03;22.06
3968;BME280;9221;42.646;23.380;2023-09-12T10:37:12;94718.16;;;33.47;23.38
3968;BME280;9221;42.646;23.380;2023-09-12T10:39:41;94722.41;;;33.04;23.88
3968;BME280;9221;42.646;23.380;2023-09-12T10:42:08;94716.41;;;33.32;24.56
3968;BME280;9221;42.646;23.380;2023-09-12T10:44:34;94704.53;;;34.23;23.76
3968;BME280;9221;42.646;23.380;2023-09-12T10:47:00;94707.97;;;35.14;22.85
3968;BME280;9221;42.646;23.380;2023-09-12T10:49:27;94695.38;;;35.68;22.61
3968;BME280;9221;42.646;23.380;2023-09-12T10:51:53;94710.22;;;35.95;21.73
3968;BME280;9221;42.646;23.380;2023-09-12T10:54:46;94704.53;;;35.50;22.46
3968;BME280;9221;42.646;23.380;2023-09-12T10:57:11;94701.50;;;35.65;22.61
3968;BME280;9221;42.646;23.380;2023-09-12T11:02:29;94698.94;;;35.55;22.63
3968;BME280;9221;42.646;23.380;2023-09-12T11:04:55;94670.19;;;35.24;22.68
3968;BME280;9221;42.646;23.380;2023-09-12T11:12:52;94688.13;;;36.37;21.85
3968;BME280;9221;42.646;23.380;2023-09-12T11:15:20;94682.41;;;36.79;21.31
3968;BME280;9221;42.646;23.380;2023-09-12T11:17:47;94686.84;;;36.88;20.06
3968;BME280;9221;42.646;23.380;2023-09-12T11:20:14;94681.19;;;36.39;21.78
3968;BME280;9221;42.646;23.380;2023-09-12T11:22:45;94681.97;;;35.25;22.11
3968;BME280;9221;42.646;23.380;2023-09-12T11:25:22;94669.97;;;34.27;23.11
3968;BME280;9221;42.646;23.380;2023-09-12T11:30:20;94669.50;;;32.95;23.71
3968;BME280;9221;42.646;23.380;2023-09-12T11:32:47;94663.41;;;34.09;23.82
3968;BME280;9221;42.646;23.380;2023-09-12T11:35:14;94670.50;;;35.23;22.86
3968;BME280;9221;42.646;23.380;2023-09-12T11:37:48;94612.72;;;35.33;21.01
3968;BME280;9221;42.646;23.380;2023-09-12T11:42:43;94642.59;;;36.45;20.40
3968;BME280;9221;42.646;23.380;2023-09-12T11:45:09;94651.56;;;36.82;20.54
3968;BME280;9221;42.646;23.380;2023-09-12T11:47:41;94656.53;;;36.80;20.33
3968;BME280;9221;42.646;23.380;2023-09-12T11:50:09;94652.00;;;37.06;19.92
3968;BME280;9221;42.646;23.380;2023-09-12T11:52:57;94649.69;;;37.00;20.58
3968;BME280;9221;42.646;23.380;2023-09-12T11:55:23;94653.44;;;37.13;19.89
3968;BME280;9221;42.646;23.380;2023-09-12T11:57:49;94650.91;;;37.25;20.22
3968;BME280;9221;42.646;23.380;2023-09-12T12:00:14;94643.09;;;37.58;19.41
3968;BME280;9221;42.646;23.380;2023-09-12T12:02:44;94645.22;;;37.70;19.89
3968;BME280;9221;42.646;23.380;2023-09-12T12:05:10;94640.09;;;37.95;19.37
3968;BME280;9221;42.646;23.380;2023-09-12T12:07:36;94632.47;;;38.27;19.02
3968;BME280;9221;42.646;23.380;2023-09-12T12:10:01;94639.91;;;38.09;19.25
3968;BME280;9221;42.646;23.380;2023-09-12T12:12:29;94639.13;;;38.08;19.25
3968;BME280;9221;42.646;23.380;2023-09-12T12:14:54;94631.31;;;38.10;19.36
3968;BME280;9221;42.646;23.380;2023-09-12T12:17:20;94625.50;;;38.21;18.91
3968;BME280;9221;42.646;23.380;2023-09-12T12:19:46;94590.84;;;37.85;19.09
3968;BME280;9221;42.646;23.380;2023-09-12T12:22:11;94632.78;;;38.34;18.90
3968;BME280;9221;42.646;23.380;2023-09-12T12:24:46;94632.81;;;38.25;18.62
3968;BME280;9221;42.646;23.380;2023-09-12T12:27:15;94626.50;;;38.25;18.94
3968;BME280;9221;42.646;23.380;2023-09-12T12:29:41;94638.78;;;38.36;18.45
3968;BME280;9221;42.646;23.380;2023-09-12T12:32:09;94603.63;;;38.16;19.15
3968;BME280;9221;42.646;23.380;2023-09-12T12:34:35;94624.69;;;38.03;19.61
3968;BME280;9221;42.646;23.380;2023-09-12T12:37:01;94626.31;;;38.21;19.59
3968;BME280;9221;42.646;23.380;2023-09-12T12:39:27;94622.44;;;38.40;19.35
3968;BME280;9221;42.646;23.380;2023-09-12T12:41:53;94616.88;;;38.49;18.49
3968;BME280;9221;42.646;23.380;2023-09-12T12:44:19;94632.75;;;38.52;18.33
3968;BME280;9221;42.646;23.380;2023-09-12T12:46:52;94616.09;;;38.13;18.98
3968;BME280;9221;42.646;23.380;2023-09-12T12:49:21;94604.44;;;37.99;18.71
3968;BME280;9221;42.646;23.380;2023-09-12T12:51:48;94607.34;;;37.85;18.95
3968;BME280;9221;42.646;23.380;2023-09-12T12:54:14;94610.13;;;37.76;19.33
3968;BME280;9221;42.646;23.380;2023-09-12T12:56:41;94603.75;;;37.75;19.01
3968;BME280;9221;42.646;23.380;2023-09-12T12:59:08;94606.22;;;37.95;19.48
3968;BME280;9221;42.646;23.380;2023-09-12T13:01:37;94608.50;;;38.10;19.16
3968;BME280;9221;42.646;23.380;2023-09-12T13:04:07;94612.06;;;37.93;18.84
3968;BME280;9221;42.646;23.380;2023-09-12T13:06:33;94604.44;;;37.90;19.17
3968;BME280;9221;42.646;23.380;2023-09-12T13:09:01;94607.66;;;37.74;19.58
3968;BME280;9221;42.646;23.380;2023-09-12T13:11:30;94599.91;;;37.76;19.51
3968;BME280;9221;42.646;23.380;2023-09-12T13:13:55;94599.56;;;37.69;19.63
3968;BME280;9221;42.646;23.380;2023-09-12T13:16:21;94609.09;;;37.63;19.55
3968;BME280;9221;42.646;23.380;2023-09-12T13:18:47;94620.28;;;37.58;19.36
3968;BME280;9221;42.646;23.380;2023-09-12T13:21:12;94602.16;;;37.74;19.12
3968;BME280;9221;42.646;23.380;2023-09-12T13:23:38;94596.53;;;37.22;20.11
3968;BME280;9221;42.646;23.380;2023-09-12T13:26:05;94598.50;;;36.81;20.45
3968;BME280;9221;42.646;23.380;2023-09-12T13:28:31;94599.22;;;36.64;20.68
3968;BME280;9221;42.646;23.380;2023-09-12T13:30:56;94597.22;;;36.47;20.42
3968;BME280;9221;42.646;23.380;2023-09-12T13:33:24;94584.78;;;36.27;20.25
3968;BME280;9221;42.646;23.380;2023-09-12T13:35:50;94599.00;;;35.84;20.93
3968;BME280;9221;42.646;23.380;2023-09-12T13:38:16;94589.94;;;35.47;21.30
3968;BME280;9221;42.646;23.380;2023-09-12T13:40:44;94617.19;;;35.01;21.72
3968;BME280;9221;42.646;23.380;2023-09-12T13:43:10;94589.78;;;34.73;21.83